sensor_id;sensor_type;location;lat;lon;timestamp;P1;durP1;ratioP1;P2;durP2;ratioP2
50851;SDS011;43953;45.508;-122.806;2023-03-17T00:00:16;1.20;;;0.98;;
50851;SDS011;43953;45.508;-122.806;2023-03-17T00:00:49;1.48;;;0.90;;
50851;SDS011;43953;45.508;-122.806;2023-03-17T00:01:22;2.90;;;1.13;;
50851;SDS011;43953;45.508;-122.806;2023-03-17T00:01:54;1.15;;;1.00;;
50851;SDS011;43953;45.508;-122.806;2023-03-17T00:02:26;2.75;;;1.30;;
50851;SDS011;43953;45.508;-122.806;2023-03-17T00:02:58;1.92;;;1.10;;
50851;SDS011;43953;45.508;-122.806;2023-03-17T00:03:31;2.08;;;1.05;;
50851;SDS011;43953;45.508;-122.806;2023-03-17T00:04:10;2.10;;;0.98;;
50851;SDS011;43953;45.508;-122.806;2023-03-17T00:04:42;2.17;;;1.15;;
50851;SDS011;43953;45.508;-122.806;2023-03-17T00:05:15;2.50;;;1.00;;
50851;SDS011;43953;45.508;-122.806;2023-03-17T00:05:47;1.40;;;1.00;;
50851;SDS011;43953;45.508;-122.806;2023-03-17T00:06:27;1.30;;;1.08;;
50851;SDS011;43953;45.508;-122.806;2023-03-17T00:07:00;3.17;;;1.15;;
50851;SDS011;43953;45.508;-122.806;2023-03-17T00:07:32;2.25;;;1.20;;
50851;SDS011;43953;45.508;-122.806;2023-03-17T00:08:25;2.63;;;1.23;;
50851;SDS011;43953;45.508;-122.806;2023-03-17T00:08:57;1.73;;;1.00;;
50851;SDS011;43953;45.508;-122.806;2023-03-17T00:09:28;1.63;;;1.02;;
50851;SDS011;43953;45.508;-122.806;2023-03-17T00:10:00;1.70;;;0.98;;
50851;SDS011;43953;45.508;-122.806;2023-03-17T00:10:32;1.85;;;1.35;;
50851;SDS011;43953;45.508;-122.806;2023-03-17T00:11:04;2.25;;;1.20;;
50851;SDS011;43953;45.508;-122.806;2023-03-17T00:11:42;1.92;;;1.25;;
50851;SDS011;43953;45.508;-122.806;2023-03-17T00:12:14;1.50;;;1.08;;
50851;SDS011;43953;45.508;-122.806;2023-03-17T00:12:48;1.83;;;1.10;;
50851;SDS011;43953;45.508;-122.806;2023-03-17T00:13:20;1.55;;;0.95;;
50851;SDS011;43953;45.508;-122.806;2023-03-17T00:13:53;2.08;;;1.13;;
50851;SDS011;43953;45.508;-122.806;2023-03-17T00:14:25;2.63;;;1.20;;
50851;SDS011;43953;45.508;-122.806;2023-03-17T00:14:57;1.75;;;1.10;;
50851;SDS011;43953;45.508;-122.806;2023-03-17T00:15:28;2.22;;;1.13;;
50851;SDS011;43953;45.508;-122.806;2023-03-17T00:16:01;1.20;;;1.10;;
50851;SDS011;43953;45.508;-122.806;2023-03-17T00:16:38;2.28;;;1.10;;
50851;SDS011;43953;45.508;-122.806;2023-03-17T00:17:19;4.43;;;1.50;;
50851;SDS011;43953;45.508;-122.806;2023-03-17T00:17:51;2.97;;;1.08;;
50851;SDS011;43953;45.508;-122.806;2023-03-17T00:18:25;2.65;;;1.05;;
50851;SDS011;43953;45.508;-122.806;2023-03-17T00:18:57;2.22;;;1.17;;
50851;SDS011;43953;45.508;-122.806;2023-03-17T00:19:30;2.60;;;1.00;;
50851;SDS011;43953;45.508;-122.806;2023-03-17T00:20:05;2.67;;;1.20;;
50851;SDS011;43953;45.508;-122.806;2023-03-17T00:20:40;2.30;;;1.33;;
50851;SDS011;43953;45.508;-122.806;2023-03-17T00:21:14;1.48;;;1.00;;
50851;SDS011;43953;45.508;-122.806;2023-03-17T00:21:52;2.15;;;1.20;;
50851;SDS011;43953;45.508;-122.806;2023-03-17T00:22:24;3.90;;;1.08;;
50851;SDS011;43953;45.508;-122.806;2023-03-17T00:22:57;2.05;;;1.13;;
50851;SDS011;43953;45.508;-122.806;2023-03-17T00:23:34;2.53;;;0.98;;
50851;SDS011;43953;45.508;-122.806;2023-03-17T00:24:08;2.80;;;1.38;;
50851;SDS011;43953;45.508;-122.806;2023-03-17T00:24:41;1.75;;;1.20;;
50851;SDS011;43953;45.508;-122.806;2023-03-17T00:25:32;2.05;;;1.15;;
50851;SDS011;43953;45.508;-122.806;2023-03-17T00:26:04;2.72;;;1.20;;
50851;SDS011;43953;45.508;-122.806;2023-03-17T00:26:36;1.95;;;0.85;;
50851;SDS011;43953;45.508;-122.806;2023-03-17T00:27:11;1.52;;;1.15;;
50851;SDS011;43953;45.508;-122.806;2023-03-17T00:27:43;1.75;;;1.08;;
50851;SDS011;43953;45.508;-122.806;2023-03-17T00:28:19;2.88;;;1.35;;
50851;SDS011;43953;45.508;-122.806;2023-03-17T00:28:56;2.20;;;1.20;;
50851;SDS011;43953;45.508;-122.806;2023-03-17T00:29:28;1.17;;;0.90;;
50851;SDS011;43953;45.508;-122.806;2023-03-17T00:30:00;3.15;;;1.02;;
50851;SDS011;43953;45.508;-122.806;2023-03-17T00:30:31;1.98;;;1.02;;
50851;SDS011;43953;45.508;-122.806;2023-03-17T00:31:08;2.80;;;1.10;;
50851;SDS011;43953;45.508;-122.806;2023-03-17T00:32:10;1.80;;;0.80;;
50851;SDS011;43953;45.508;-122.806;2023-03-17T00:32:48;1.65;;;1.02;;
50851;SDS011;43953;45.508;-122.806;2023-03-17T00:33:22;1.83;;;1.00;;
50851;SDS011;43953;45.508;-122.806;2023-03-17T00:33:56;2.63;;;1.20;;
50851;SDS011;43953;45.508;-122.806;2023-03-17T00:34:28;2.45;;;1.30;;
50851;SDS011;43953;45.508;-122.806;2023-03-17T00:35:00;1.38;;;1.10;;
50851;SDS011;43953;45.508;-122.806;2023-03-17T00:35:34;2.03;;;0.90;;
50851;SDS011;43953;45.508;-122.806;2023-03-17T00:36:08;2.60;;;1.10;;
50851;SDS011;43953;45.508;-122.806;2023-03-17T00:36:46;2.00;;;0.90;;
50851;SDS011;43953;45.508;-122.806;2023-03-17T00:37:19;1.48;;;1.10;;
50851;SDS011;43953;45.508;-122.806;2023-03-17T00:37:52;2.03;;;1.17;;
50851;SDS011;43953;45.508;-122.806;2023-03-17T00:38:25;2.17;;;1.00;;
50851;SDS011;43953;45.508;-122.806;2023-03-17T00:38:58;1.52;;;1.05;;
50851;SDS011;43953;45.508;-122.806;2023-03-17T00:39:30;1.88;;;1.00;;
50851;SDS011;43953;45.508;-122.806;2023-03-17T00:40:02;2.88;;;1.25;;
50851;SDS011;43953;45.508;-122.806;2023-03-17T00:40:36;1.92;;;1.10;;
50851;SDS011;43953;45.508;-122.806;2023-03-17T00:41:10;1.67;;;1.30;;
50851;SDS011;43953;45.508;-122.806;2023-03-17T00:41:43;1.70;;;1.23;;
50851;SDS011;43953;45.508;-122.806;2023-03-17T00:42:14;3.80;;;1.30;;
50851;SDS011;43953;45.508;-122.806;2023-03-17T00:42:47;1.55;;;1.15;;
50851;SDS011;43953;45.508;-122.806;2023-03-17T00:43:20;2.20;;;1.23;;
50851;SDS011;43953;45.508;-122.806;2023-03-17T00:43:52;2.65;;;1.20;;
50851;SDS011;43953;45.508;-122.806;2023-03-17T00:44:24;1.20;;;1.10;;
50851;SDS011;43953;45.508;-122.806;2023-03-17T00:44:56;1.50;;;1.00;;
50851;SDS011;43953;45.508;-122.806;2023-03-17T00:45:27;1.95;;;1.00;;
50851;SDS011;43953;45.508;-122.806;2023-03-17T00:45:59;1.10;;;0.90;;
50851;SDS011;43953;45.508;-122.806;2023-03-17T00:46:31;2.65;;;1.02;;
50851;SDS011;43953;45.508;-122.806;2023-03-17T00:47:08;2.58;;;1.30;;
50851;SDS011;43953;45.508;-122.806;2023-03-17T00:47:42;3.33;;;1.10;;
50851;SDS011;43953;45.508;-122.806;2023-03-17T00:48:16;1.48;;;0.95;;
50851;SDS011;43953;45.508;-122.806;2023-03-17T00:48:50;1.77;;;1.25;;
50851;SDS011;43953;45.508;-122.806;2023-03-17T00:49:22;3.25;;;1.10;;
50851;SDS011;43953;45.508;-122.806;2023-03-17T00:49:56;1.50;;;1.15;;
50851;SDS011;43953;45.508;-122.806;2023-03-17T00:50:28;1.38;;;1.00;;
50851;SDS011;43953;45.508;-122.806;2023-03-17T00:50:59;1.88;;;1.10;;
50851;SDS011;43953;45.508;-122.806;2023-03-17T00:51:31;2.20;;;1.15;;
50851;SDS011;43953;45.508;-122.806;2023-03-17T00:52:03;0.95;;;0.85;;
50851;SDS011;43953;45.508;-122.806;2023-03-17T00:52:35;2.15;;;1.33;;
50851;SDS011;43953;45.508;-122.806;2023-03-17T00:53:11;2.80;;;1.10;;
50851;SDS011;43953;45.508;-122.806;2023-03-17T00:53:45;2.22;;;1.58;;
50851;SDS011;43953;45.508;-122.806;2023-03-17T00:54:18;1.42;;;1.10;;
50851;SDS011;43953;45.508;-122.806;2023-03-17T00:54:50;2.97;;;1.10;;
50851;SDS011;43953;45.508;-122.806;2023-03-17T00:55:23;1.35;;;1.23;;
50851;SDS011;43953;45.508;-122.806;2023-03-17T00:55:59;2.13;;;1.15;;
50851;SDS011;43953;45.508;-122.806;2023-03-17T00:56:31;2.47;;;1.25;;
50851;SDS011;43953;45.508;-122.806;2023-03-17T00:57:02;3.25;;;1.08;;
50851;SDS011;43953;45.508;-122.806;2023-03-17T00:57:35;3.17;;;1.20;;
50851;SDS011;43953;45.508;-122.806;2023-03-17T00:58:56;2.63;;;1.30;;
50851;SDS011;43953;45.508;-122.806;2023-03-17T00:59:29;2.25;;;1.15;;
50851;SDS011;43953;45.508;-122.806;2023-03-17T01:00:27;2.70;;;1.27;;
50851;SDS011;43953;45.508;-122.806;2023-03-17T01:01:01;2.42;;;1.15;;
50851;SDS011;43953;45.508;-122.806;2023-03-17T01:01:32;2.05;;;1.25;;
50851;SDS011;43953;45.508;-122.806;2023-03-17T01:02:04;3.55;;;1.40;;
50851;SDS011;43953;45.508;-122.806;2023-03-17T01:02:36;2.17;;;1.20;;
50851;SDS011;43953;45.508;-122.806;2023-03-17T01:03:09;2.08;;;1.13;;
50851;SDS011;43953;45.508;-122.806;2023-03-17T01:03:42;2.83;;;1.50;;
50851;SDS011;43953;45.508;-122.806;2023-03-17T01:04:14;1.98;;;1.08;;
50851;SDS011;43953;45.508;-122.806;2023-03-17T01:04:46;2.10;;;1.20;;
50851;SDS011;43953;45.508;-122.806;2023-03-17T01:05:18;2.03;;;1.10;;
50851;SDS011;43953;45.508;-122.806;2023-03-17T01:05:52;1.13;;;1.02;;
50851;SDS011;43953;45.508;-122.806;2023-03-17T01:06:26;2.55;;;1.40;;
50851;SDS011;43953;45.508;-122.806;2023-03-17T01:06:58;3.85;;;1.10;;
50851;SDS011;43953;45.508;-122.806;2023-03-17T01:07:30;2.90;;;1.00;;
50851;SDS011;43953;45.508;-122.806;2023-03-17T01:08:02;3.05;;;1.20;;
50851;SDS011;43953;45.508;-122.806;2023-03-17T01:08:34;2.22;;;1.10;;
50851;SDS011;43953;45.508;-122.806;2023-03-17T01:09:06;2.58;;;1.00;;
50851;SDS011;43953;45.508;-122.806;2023-03-17T01:09:38;2.35;;;1.00;;
50851;SDS011;43953;45.508;-122.806;2023-03-17T01:10:15;1.63;;;1.00;;
50851;SDS011;43953;45.508;-122.806;2023-03-17T01:10:58;2.97;;;1.30;;
50851;SDS011;43953;45.508;-122.806;2023-03-17T01:11:31;2.30;;;1.33;;
50851;SDS011;43953;45.508;-122.806;2023-03-17T01:12:03;1.30;;;1.20;;
50851;SDS011;43953;45.508;-122.806;2023-03-17T01:12:36;2.10;;;1.10;;
50851;SDS011;43953;45.508;-122.806;2023-03-17T01:13:10;2.22;;;1.20;;
50851;SDS011;43953;45.508;-122.806;2023-03-17T01:13:43;2.13;;;1.23;;
50851;SDS011;43953;45.508;-122.806;2023-03-17T01:14:15;1.48;;;1.13;;
50851;SDS011;43953;45.508;-122.806;2023-03-17T01:14:47;2.38;;;1.20;;
50851;SDS011;43953;45.508;-122.806;2023-03-17T01:15:19;1.75;;;1.17;;
50851;SDS011;43953;45.508;-122.806;2023-03-17T01:15:52;3.42;;;1.20;;
50851;SDS011;43953;45.508;-122.806;2023-03-17T01:16:26;1.70;;;1.10;;
50851;SDS011;43953;45.508;-122.806;2023-03-17T01:16:58;2.40;;;1.25;;
50851;SDS011;43953;45.508;-122.806;2023-03-17T01:17:30;1.58;;;1.10;;
50851;SDS011;43953;45.508;-122.806;2023-03-17T01:18:03;2.00;;;1.05;;
50851;SDS011;43953;45.508;-122.806;2023-03-17T01:18:34;3.17;;;1.30;;
50851;SDS011;43953;45.508;-122.806;2023-03-17T01:19:06;2.13;;;1.27;;
50851;SDS011;43953;45.508;-122.806;2023-03-17T01:19:40;2.47;;;1.05;;
50851;SDS011;43953;45.508;-122.806;2023-03-17T01:20:18;1.58;;;1.13;;
50851;SDS011;43953;45.508;-122.806;2023-03-17T01:20:54;1.80;;;1.05;;
50851;SDS011;43953;45.508;-122.806;2023-03-17T01:21:26;2.90;;;1.30;;
50851;SDS011;43953;45.508;-122.806;2023-03-17T01:21:57;1.83;;;1.20;;
50851;SDS011;43953;45.508;-122.806;2023-03-17T01:22:29;3.53;;;1.13;;
50851;SDS011;43953;45.508;-122.806;2023-03-17T01:23:01;1.40;;;1.30;;
50851;SDS011;43953;45.508;-122.806;2023-03-17T01:23:33;1.38;;;1.00;;
50851;SDS011;43953;45.508;-122.806;2023-03-17T01:24:05;1.52;;;1.08;;
50851;SDS011;43953;45.508;-122.806;2023-03-17T01:24:38;2.97;;;1.30;;
50851;SDS011;43953;45.508;-122.806;2023-03-17T01:25:10;3.22;;;1.27;;
50851;SDS011;43953;45.508;-122.806;2023-03-17T01:25:43;2.13;;;1.45;;
50851;SDS011;43953;45.508;-122.806;2023-03-17T01:26:15;1.63;;;1.00;;
50851;SDS011;43953;45.508;-122.806;2023-03-17T01:26:47;1.98;;;1.00;;
50851;SDS011;43953;45.508;-122.806;2023-03-17T01:27:18;2.55;;;1.10;;
50851;SDS011;43953;45.508;-122.806;2023-03-17T01:27:50;2.45;;;1.10;;
50851;SDS011;43953;45.508;-122.806;2023-03-17T01:28:22;2.30;;;1.30;;
50851;SDS011;43953;45.508;-122.806;2023-03-17T01:28:55;2.38;;;1.30;;
50851;SDS011;43953;45.508;-122.806;2023-03-17T01:29:27;1.55;;;1.00;;
50851;SDS011;43953;45.508;-122.806;2023-03-17T01:29:58;1.50;;;1.00;;
50851;SDS011;43953;45.508;-122.806;2023-03-17T01:30:32;2.05;;;1.17;;
50851;SDS011;43953;45.508;-122.806;2023-03-17T01:31:08;1.80;;;1.27;;
50851;SDS011;43953;45.508;-122.806;2023-03-17T01:31:40;1.92;;;1.13;;
50851;SDS011;43953;45.508;-122.806;2023-03-17T01:32:11;1.80;;;1.20;;
50851;SDS011;43953;45.508;-122.806;2023-03-17T01:32:43;2.13;;;1.30;;
50851;SDS011;43953;45.508;-122.806;2023-03-17T01:33:15;4.55;;;1.40;;
50851;SDS011;43953;45.508;-122.806;2023-03-17T01:33:47;2.72;;;1.75;;
50851;SDS011;43953;45.508;-122.806;2023-03-17T01:34:19;2.00;;;1.20;;
50851;SDS011;43953;45.508;-122.806;2023-03-17T01:34:51;1.92;;;1.30;;
50851;SDS011;43953;45.508;-122.806;2023-03-17T01:35:24;3.60;;;1.20;;
50851;SDS011;43953;45.508;-122.806;2023-03-17T01:35:57;3.03;;;1.20;;
50851;SDS011;43953;45.508;-122.806;2023-03-17T01:36:29;1.63;;;1.00;;
50851;SDS011;43953;45.508;-122.806;2023-03-17T01:37:00;1.73;;;1.08;;
50851;SDS011;43953;45.508;-122.806;2023-03-17T01:37:32;2.83;;;1.10;;
50851;SDS011;43953;45.508;-122.806;2023-03-17T01:38:04;2.35;;;1.30;;
50851;SDS011;43953;45.508;-122.806;2023-03-17T01:38:36;2.22;;;1.33;;
50851;SDS011;43953;45.508;-122.806;2023-03-17T01:39:08;2.63;;;1.30;;
50851;SDS011;43953;45.508;-122.806;2023-03-17T01:39:39;2.42;;;1.30;;
50851;SDS011;43953;45.508;-122.806;2023-03-17T01:40:21;1.70;;;1.20;;
50851;SDS011;43953;45.508;-122.806;2023-03-17T01:40:55;2.42;;;1.42;;
50851;SDS011;43953;45.508;-122.806;2023-03-17T01:41:26;2.95;;;1.23;;
50851;SDS011;43953;45.508;-122.806;2023-03-17T01:41:58;2.05;;;1.20;;
50851;SDS011;43953;45.508;-122.806;2023-03-17T01:42:31;2.00;;;1.30;;
50851;SDS011;43953;45.508;-122.806;2023-03-17T01:43:40;1.30;;;1.20;;
50851;SDS011;43953;45.508;-122.806;2023-03-17T01:44:16;1.80;;;1.20;;
50851;SDS011;43953;45.508;-122.806;2023-03-17T01:45:07;2.25;;;1.10;;
50851;SDS011;43953;45.508;-122.806;2023-03-17T01:46:59;2.50;;;1.30;;
50851;SDS011;43953;45.508;-122.806;2023-03-17T01:47:31;1.92;;;1.30;;
50851;SDS011;43953;45.508;-122.806;2023-03-17T01:48:03;3.08;;;1.70;;
50851;SDS011;43953;45.508;-122.806;2023-03-17T01:48:37;2.45;;;1.35;;
50851;SDS011;43953;45.508;-122.806;2023-03-17T01:49:17;3.05;;;1.50;;
50851;SDS011;43953;45.508;-122.806;2023-03-17T01:49:53;3.47;;;1.20;;
50851;SDS011;43953;45.508;-122.806;2023-03-17T01:50:26;3.35;;;1.40;;
50851;SDS011;43953;45.508;-122.806;2023-03-17T01:50:59;1.20;;;1.05;;
50851;SDS011;43953;45.508;-122.806;2023-03-17T01:52:12;2.47;;;1.10;;
50851;SDS011;43953;45.508;-122.806;2023-03-17T01:52:47;1.42;;;1.20;;
50851;SDS011;43953;45.508;-122.806;2023-03-17T01:53:19;3.13;;;1.10;;
50851;SDS011;43953;45.508;-122.806;2023-03-17T01:53:53;1.83;;;1.38;;
50851;SDS011;43953;45.508;-122.806;2023-03-17T01:54:31;0.90;;;0.90;;
50851;SDS011;43953;45.508;-122.806;2023-03-17T01:55:20;1.63;;;1.17;;
50851;SDS011;43953;45.508;-122.806;2023-03-17T01:55:51;1.75;;;1.20;;
50851;SDS011;43953;45.508;-122.806;2023-03-17T01:56:24;3.03;;;1.20;;
50851;SDS011;43953;45.508;-122.806;2023-03-17T01:56:58;1.65;;;1.13;;
50851;SDS011;43953;45.508;-122.806;2023-03-17T01:57:47;2.15;;;0.90;;
50851;SDS011;43953;45.508;-122.806;2023-03-17T01:58:26;1.50;;;1.00;;
50851;SDS011;43953;45.508;-122.806;2023-03-17T01:58:58;2.03;;;1.10;;
50851;SDS011;43953;45.508;-122.806;2023-03-17T01:59:34;1.88;;;1.15;;
50851;SDS011;43953;45.508;-122.806;2023-03-17T02:00:11;1.95;;;1.27;;
50851;SDS011;43953;45.508;-122.806;2023-03-17T02:00:48;2.25;;;1.13;;
50851;SDS011;43953;45.508;-122.806;2023-03-17T02:01:22;2.40;;;1.20;;
50851;SDS011;43953;45.508;-122.806;2023-03-17T02:02:02;1.42;;;1.00;;
50851;SDS011;43953;45.508;-122.806;2023-03-17T02:02:42;1.77;;;0.80;;
50851;SDS011;43953;45.508;-122.806;2023-03-17T02:03:17;3.25;;;1.10;;
50851;SDS011;43953;45.508;-122.806;2023-03-17T02:03:50;2.50;;;1.25;;
50851;SDS011;43953;45.508;-122.806;2023-03-17T02:04:23;1.33;;;1.10;;
50851;SDS011;43953;45.508;-122.806;2023-03-17T02:04:56;2.28;;;1.20;;
50851;SDS011;43953;45.508;-122.806;2023-03-17T02:05:29;4.13;;;1.30;;
50851;SDS011;43953;45.508;-122.806;2023-03-17T02:06:02;2.03;;;1.08;;
50851;SDS011;43953;45.508;-122.806;2023-03-17T02:06:34;1.25;;;0.80;;
50851;SDS011;43953;45.508;-122.806;2023-03-17T02:07:06;1.70;;;1.17;;
50851;SDS011;43953;45.508;-122.806;2023-03-17T02:07:43;4.00;;;1.73;;
50851;SDS011;43953;45.508;-122.806;2023-03-17T02:08:15;3.92;;;1.08;;
50851;SDS011;43953;45.508;-122.806;2023-03-17T02:08:47;1.30;;;1.15;;
50851;SDS011;43953;45.508;-122.806;2023-03-17T02:09:19;2.80;;;1.30;;
50851;SDS011;43953;45.508;-122.806;2023-03-17T02:09:51;1.35;;;1.17;;
50851;SDS011;43953;45.508;-122.806;2023-03-17T02:10:24;2.40;;;1.25;;
50851;SDS011;43953;45.508;-122.806;2023-03-17T02:10:58;1.40;;;1.10;;
50851;SDS011;43953;45.508;-122.806;2023-03-17T02:11:31;1.77;;;1.30;;
50851;SDS011;43953;45.508;-122.806;2023-03-17T02:12:04;1.38;;;0.90;;
50851;SDS011;43953;45.508;-122.806;2023-03-17T02:12:38;1.52;;;1.10;;
50851;SDS011;43953;45.508;-122.806;2023-03-17T02:13:13;1.70;;;1.40;;
50851;SDS011;43953;45.508;-122.806;2023-03-17T02:13:46;3.13;;;1.40;;
50851;SDS011;43953;45.508;-122.806;2023-03-17T02:14:18;2.85;;;1.55;;
50851;SDS011;43953;45.508;-122.806;2023-03-17T02:14:50;3.65;;;1.60;;
50851;SDS011;43953;45.508;-122.806;2023-03-17T02:15:23;3.28;;;1.50;;
50851;SDS011;43953;45.508;-122.806;2023-03-17T02:16:05;3.63;;;1.83;;
50851;SDS011;43953;45.508;-122.806;2023-03-17T02:16:37;1.95;;;1.60;;
50851;SDS011;43953;45.508;-122.806;2023-03-17T02:17:09;3.05;;;1.65;;
50851;SDS011;43953;45.508;-122.806;2023-03-17T02:17:40;2.92;;;1.80;;
50851;SDS011;43953;45.508;-122.806;2023-03-17T02:18:13;2.40;;;1.60;;
50851;SDS011;43953;45.508;-122.806;2023-03-17T02:18:47;2.97;;;1.75;;
50851;SDS011;43953;45.508;-122.806;2023-03-17T02:19:19;3.03;;;1.40;;
50851;SDS011;43953;45.508;-122.806;2023-03-17T02:19:51;1.20;;;1.10;;
50851;SDS011;43953;45.508;-122.806;2023-03-17T02:21:59;1.63;;;1.27;;
50851;SDS011;43953;45.508;-122.806;2023-03-17T02:22:31;2.15;;;1.30;;
50851;SDS011;43953;45.508;-122.806;2023-03-17T02:23:03;1.92;;;1.17;;
50851;SDS011;43953;45.508;-122.806;2023-03-17T02:23:36;3.55;;;1.45;;
50851;SDS011;43953;45.508;-122.806;2023-03-17T02:24:09;3.15;;;1.20;;
50851;SDS011;43953;45.508;-122.806;2023-03-17T02:24:48;1.70;;;1.30;;
50851;SDS011;43953;45.508;-122.806;2023-03-17T02:25:23;2.60;;;1.10;;
50851;SDS011;43953;45.508;-122.806;2023-03-17T02:25:58;2.50;;;1.30;;
50851;SDS011;43953;45.508;-122.806;2023-03-17T02:26:30;1.52;;;1.00;;
50851;SDS011;43953;45.508;-122.806;2023-03-17T02:27:09;1.48;;;1.10;;
50851;SDS011;43953;45.508;-122.806;2023-03-17T02:27:48;1.55;;;1.38;;
50851;SDS011;43953;45.508;-122.806;2023-03-17T02:28:26;2.38;;;1.20;;
50851;SDS011;43953;45.508;-122.806;2023-03-17T02:29:00;1.52;;;1.02;;
50851;SDS011;43953;45.508;-122.806;2023-03-17T02:29:34;1.80;;;1.02;;
50851;SDS011;43953;45.508;-122.806;2023-03-17T02:30:08;2.38;;;1.20;;
50851;SDS011;43953;45.508;-122.806;2023-03-17T02:30:42;1.77;;;1.20;;
50851;SDS011;43953;45.508;-122.806;2023-03-17T02:31:14;1.95;;;1.05;;
50851;SDS011;43953;45.508;-122.806;2023-03-17T02:31:47;1.75;;;1.40;;
50851;SDS011;43953;45.508;-122.806;2023-03-17T02:32:18;2.40;;;1.30;;
50851;SDS011;43953;45.508;-122.806;2023-03-17T02:32:50;3.40;;;1.30;;
50851;SDS011;43953;45.508;-122.806;2023-03-17T02:33:22;2.67;;;1.00;;
50851;SDS011;43953;45.508;-122.806;2023-03-17T02:33:54;3.40;;;1.30;;
50851;SDS011;43953;45.508;-122.806;2023-03-17T02:34:26;2.17;;;1.10;;
50851;SDS011;43953;45.508;-122.806;2023-03-17T02:34:57;2.50;;;1.20;;
50851;SDS011;43953;45.508;-122.806;2023-03-17T02:35:29;2.22;;;1.20;;
50851;SDS011;43953;45.508;-122.806;2023-03-17T02:36:01;2.45;;;1.20;;
50851;SDS011;43953;45.508;-122.806;2023-03-17T02:36:33;1.52;;;1.38;;
50851;SDS011;43953;45.508;-122.806;2023-03-17T02:37:05;1.42;;;1.10;;
50851;SDS011;43953;45.508;-122.806;2023-03-17T02:37:37;1.80;;;0.90;;
50851;SDS011;43953;45.508;-122.806;2023-03-17T02:38:09;1.88;;;1.13;;
50851;SDS011;43953;45.508;-122.806;2023-03-17T02:38:41;1.42;;;1.10;;
50851;SDS011;43953;45.508;-122.806;2023-03-17T02:39:13;3.75;;;1.38;;
50851;SDS011;43953;45.508;-122.806;2023-03-17T02:39:45;1.55;;;1.30;;
50851;SDS011;43953;45.508;-122.806;2023-03-17T02:40:17;1.83;;;1.10;;
50851;SDS011;43953;45.508;-122.806;2023-03-17T02:40:48;3.53;;;1.35;;
50851;SDS011;43953;45.508;-122.806;2023-03-17T02:41:20;1.83;;;1.20;;
50851;SDS011;43953;45.508;-122.806;2023-03-17T02:41:53;1.98;;;1.00;;
50851;SDS011;43953;45.508;-122.806;2023-03-17T02:42:24;3.78;;;1.00;;
50851;SDS011;43953;45.508;-122.806;2023-03-17T02:42:56;2.08;;;1.33;;
50851;SDS011;43953;45.508;-122.806;2023-03-17T02:43:29;1.98;;;1.15;;
50851;SDS011;43953;45.508;-122.806;2023-03-17T02:44:00;1.83;;;1.33;;
50851;SDS011;43953;45.508;-122.806;2023-03-17T02:44:32;2.90;;;1.30;;
50851;SDS011;43953;45.508;-122.806;2023-03-17T02:45:04;1.73;;;1.10;;
50851;SDS011;43953;45.508;-122.806;2023-03-17T02:45:38;3.20;;;1.27;;
50851;SDS011;43953;45.508;-122.806;2023-03-17T02:46:11;3.05;;;1.20;;
50851;SDS011;43953;45.508;-122.806;2023-03-17T02:46:43;3.13;;;1.20;;
50851;SDS011;43953;45.508;-122.806;2023-03-17T02:47:14;1.98;;;1.30;;
50851;SDS011;43953;45.508;-122.806;2023-03-17T02:47:47;1.40;;;1.17;;
50851;SDS011;43953;45.508;-122.806;2023-03-17T02:48:21;1.90;;;1.10;;
50851;SDS011;43953;45.508;-122.806;2023-03-17T02:48:53;3.00;;;1.50;;
50851;SDS011;43953;45.508;-122.806;2023-03-17T02:49:26;2.00;;;1.15;;
50851;SDS011;43953;45.508;-122.806;2023-03-17T02:49:58;2.50;;;1.33;;
50851;SDS011;43953;45.508;-122.806;2023-03-17T02:50:30;2.05;;;1.40;;
50851;SDS011;43953;45.508;-122.806;2023-03-17T02:51:02;2.40;;;1.27;;
50851;SDS011;43953;45.508;-122.806;2023-03-17T02:51:34;2.08;;;1.15;;
50851;SDS011;43953;45.508;-122.806;2023-03-17T02:52:06;2.85;;;1.15;;
50851;SDS011;43953;45.508;-122.806;2023-03-17T02:52:39;2.45;;;1.30;;
50851;SDS011;43953;45.508;-122.806;2023-03-17T02:53:11;2.97;;;1.30;;
50851;SDS011;43953;45.508;-122.806;2023-03-17T02:53:42;1.65;;;1.20;;
50851;SDS011;43953;45.508;-122.806;2023-03-17T02:54:14;1.50;;;1.40;;
50851;SDS011;43953;45.508;-122.806;2023-03-17T02:54:46;2.50;;;1.38;;
50851;SDS011;43953;45.508;-122.806;2023-03-17T02:55:18;4.18;;;1.77;;
50851;SDS011;43953;45.508;-122.806;2023-03-17T02:55:50;3.05;;;1.50;;
50851;SDS011;43953;45.508;-122.806;2023-03-17T02:56:21;2.80;;;1.52;;
50851;SDS011;43953;45.508;-122.806;2023-03-17T02:56:53;2.28;;;1.67;;
50851;SDS011;43953;45.508;-122.806;2023-03-17T02:57:25;3.33;;;2.03;;
50851;SDS011;43953;45.508;-122.806;2023-03-17T02:57:57;2.47;;;1.33;;
50851;SDS011;43953;45.508;-122.806;2023-03-17T02:58:28;2.30;;;1.55;;
50851;SDS011;43953;45.508;-122.806;2023-03-17T02:59:00;2.28;;;1.45;;
50851;SDS011;43953;45.508;-122.806;2023-03-17T02:59:32;2.15;;;1.40;;
50851;SDS011;43953;45.508;-122.806;2023-03-17T03:00:04;5.15;;;1.80;;
50851;SDS011;43953;45.508;-122.806;2023-03-17T03:00:37;3.92;;;2.03;;
50851;SDS011;43953;45.508;-122.806;2023-03-17T03:01:10;3.10;;;1.80;;
50851;SDS011;43953;45.508;-122.806;2023-03-17T03:01:42;2.45;;;1.63;;
50851;SDS011;43953;45.508;-122.806;2023-03-17T03:02:14;3.35;;;1.90;;
50851;SDS011;43953;45.508;-122.806;2023-03-17T03:02:46;3.17;;;1.98;;
50851;SDS011;43953;45.508;-122.806;2023-03-17T03:03:18;3.05;;;2.00;;
50851;SDS011;43953;45.508;-122.806;2023-03-17T03:03:49;3.28;;;1.70;;
50851;SDS011;43953;45.508;-122.806;2023-03-17T03:04:21;4.25;;;1.80;;
50851;SDS011;43953;45.508;-122.806;2023-03-17T03:04:54;3.13;;;1.80;;
50851;SDS011;43953;45.508;-122.806;2023-03-17T03:05:26;3.38;;;1.88;;
50851;SDS011;43953;45.508;-122.806;2023-03-17T03:05:58;2.92;;;1.67;;
50851;SDS011;43953;45.508;-122.806;2023-03-17T03:06:30;3.15;;;1.98;;
50851;SDS011;43953;45.508;-122.806;2023-03-17T03:07:02;2.50;;;1.42;;
50851;SDS011;43953;45.508;-122.806;2023-03-17T03:07:34;3.13;;;1.63;;
50851;SDS011;43953;45.508;-122.806;2023-03-17T03:08:06;3.50;;;2.17;;
50851;SDS011;43953;45.508;-122.806;2023-03-17T03:08:38;3.67;;;2.00;;
50851;SDS011;43953;45.508;-122.806;2023-03-17T03:09:10;3.78;;;1.90;;
50851;SDS011;43953;45.508;-122.806;2023-03-17T03:09:42;3.67;;;1.77;;
50851;SDS011;43953;45.508;-122.806;2023-03-17T03:10:14;3.13;;;1.77;;
50851;SDS011;43953;45.508;-122.806;2023-03-17T03:10:48;3.80;;;2.30;;
50851;SDS011;43953;45.508;-122.806;2023-03-17T03:11:20;2.58;;;1.70;;
50851;SDS011;43953;45.508;-122.806;2023-03-17T03:11:52;3.65;;;2.00;;
50851;SDS011;43953;45.508;-122.806;2023-03-17T03:12:24;2.60;;;1.92;;
50851;SDS011;43953;45.508;-122.806;2023-03-17T03:12:56;3.83;;;1.92;;
50851;SDS011;43953;45.508;-122.806;2023-03-17T03:13:28;2.45;;;1.80;;
50851;SDS011;43953;45.508;-122.806;2023-03-17T03:13:59;3.97;;;1.90;;
50851;SDS011;43953;45.508;-122.806;2023-03-17T03:14:32;3.60;;;1.90;;
50851;SDS011;43953;45.508;-122.806;2023-03-17T03:15:03;4.10;;;2.15;;
50851;SDS011;43953;45.508;-122.806;2023-03-17T03:15:39;2.53;;;1.77;;
50851;SDS011;43953;45.508;-122.806;2023-03-17T03:16:11;3.55;;;2.00;;
50851;SDS011;43953;45.508;-122.806;2023-03-17T03:16:43;3.17;;;2.08;;
50851;SDS011;43953;45.508;-122.806;2023-03-17T03:17:16;4.82;;;2.42;;
50851;SDS011;43953;45.508;-122.806;2023-03-17T03:17:49;6.30;;;2.00;;